This is the latest recevied weather packets stored in our database for station/object HA6IFZ-10. If no packets are shown the sender has not sent any weather packets the latest 10 day(s).
| Time | Temp. | Humidity | Pressure | Rain* | Wind** | Luminosity | Snow |
|---|---|---|---|---|---|---|---|
| 1777504739 | 5.56° C | 34% | 1034.3 hPa | - | - | - | - |
| 1777503839 | 6.11° C | 33% | 1034 hPa | - | - | - | - |
| 1777502851 | 6.11° C | 32% | 1034.4 hPa | - | - | - | - |
| 1777500047 | 6.67° C | 29% | 1033.5 hPa | - | - | - | - |
| 1777498291 | 7.22° C | 29% | 1033.4 hPa | - | - | - | - |
| 1777495948 | 7.22° C | 32% | 1033.1 hPa | - | - | - | - |
| 1777495048 | 7.22° C | 34% | 1032.5 hPa | - | - | - | - |
| 1777492504 | 7.22° C | 39% | 1032 hPa | - | - | - | - |
| 1777484488 | 9.44° C | 34% | 1030 hPa | - | - | - | - |
| 1777482074 | 10.56° C | 33% | 1029.5 hPa | - | - | - | - |
| 1777481174 | 11.11° C | 32% | 1029.1 hPa | - | - | - | - |
| 1777480274 | 11.67° C | 30% | 1029.1 hPa | - | - | - | - |
| 1777479374 | 11.67° C | 30% | 1029.1 hPa | - | - | - | - |
| 1777456249 | 14.44° C | 26% | 1029.7 hPa | - | - | - | - |
| 1777455349 | 14.44° C | 24% | 1029.9 hPa | - | - | - | - |
| 1777453794 | 13.33° C | 25% | 1030.1 hPa | - | - | - | - |
| 1777452893 | 13.33° C | 24% | 1030.3 hPa | - | - | - | - |
| 1777451617 | 12.78° C | 25% | 1030.3 hPa | - | - | - | - |
| 1777446020 | 11.11° C | 25% | 1030.4 hPa | - | - | - | - |
| 1777444484 | 10.56° C | 27% | 1030.2 hPa | - | - | - | - |
| 1777442166 | 10.56° C | 27% | 1030.1 hPa | - | - | - | - |
| 1777441236 | 11.67° C | 25% | 1030.2 hPa | - | - | - | - |
| 1777440336 | 11.67° C | 25% | 1030.1 hPa | - | - | - | - |
| 1777436945 | 11.11° C | 26% | 1029.5 hPa | - | - | - | - |
| 1777433498 | 5.56° C | 34% | 1029.4 hPa | - | - | - | - |
* Rain since midnight (hover to see other rain measurements)
** Current wind speed in m/s (hover to see current wind gust speed)